Time;durP1;ratioP1;P1;durP2;ratioP2;P2;SDS_P1;SDS_P2;PMS_P1;PMS_P2;Temp;Humidity;BMP_temperature;BMP_pressure;BME280_temperature;BME280_humidity;BME280_pressure;Samples;Min_cycle;Max_cycle;Signal;HPM_P1;HPM_P2
2023/05/24 00:02:06;;;;;;;13.30;6.85;;;;;;;;;;5058991;28;20066;-74
2023/05/24 00:04:33;;;;;;;13.25;7.18;;;;;;;;;;5058248;28;20027;-75
2023/05/24 00:07:02;;;;;;;11.70;7.05;;;;;;;;;;5052941;28;20398;-76
2023/05/24 00:09:29;;;;;;;9.85;7.55;;;;;;;;;;5058386;28;20052;-75
2023/05/24 00:11:55;;;;;;;12.02;6.82;;;;;;;;;;5059531;28;20394;-78
2023/05/24 00:14:22;;;;;;;12.90;7.22;;;;;;;;;;5055234;28;20020;-73
2023/05/24 00:16:48;;;;;;;13.40;7.97;;;;;;;;;;5061300;28;20027;-74
2023/05/24 00:19:17;;;;;;;14.13;8.10;;;;;;;;;;5059753;28;20104;-74
2023/05/24 00:21:46;;;;;;;16.80;8.45;;;;;;;;;;5060630;28;20108;-74
2023/05/24 00:24:12;;;;;;;12.73;7.45;;;;;;;;;;5060933;28;20120;-74
2023/05/24 00:26:39;;;;;;;14.75;8.60;;;;;;;;;;5060203;28;20559;-74
2023/05/24 00:29:05;;;;;;;15.82;8.30;;;;;;;;;;5065125;28;20043;-73
2023/05/24 00:31:31;;;;;;;14.52;7.90;;;;;;;;;;5066017;28;20276;-73
2023/05/24 00:33:58;;;;;;;13.77;8.38;;;;;;;;;;5063759;28;20551;-74
2023/05/24 00:36:25;;;;;;;14.75;8.13;;;;;;;;;;5064176;28;20039;-74
2023/05/24 00:38:54;;;;;;;10.98;7.70;;;;;;;;;;5064374;28;20070;-73
2023/05/24 00:41:20;;;;;;;14.40;8.30;;;;;;;;;;5064721;28;20913;-74
2023/05/24 00:43:46;;;;;;;11.35;7.20;;;;;;;;;;5060796;28;20051;-73
2023/05/24 00:46:17;;;;;;;13.07;6.97;;;;;;;;;;5064779;28;20412;-74
2023/05/24 00:48:44;;;;;;;11.52;6.97;;;;;;;;;;5064952;28;20594;-73
2023/05/24 00:51:11;;;;;;;12.98;6.50;;;;;;;;;;5066599;28;20738;-74
2023/05/24 00:53:38;;;;;;;15.07;6.57;;;;;;;;;;5058613;28;20104;-78
2023/05/24 00:56:05;;;;;;;8.00;5.93;;;;;;;;;;5065608;28;20024;-74
2023/05/24 00:58:32;;;;;;;8.43;6.00;;;;;;;;;;5064701;28;20385;-73
2023/05/24 01:01:01;;;;;;;9.60;5.93;;;;;;;;;;5066123;28;20194;-74
2023/05/24 01:03:28;;;;;;;9.65;6.00;;;;;;;;;;5063465;28;20044;-74
2023/05/24 01:06:00;;;;;;;8.45;5.80;;;;;;;;;;5066463;28;20492;-75
2023/05/24 01:08:39;;;;;;;11.95;6.20;;;;;;;;;;5061800;28;20032;-74
2023/05/24 01:11:25;;;;;;;11.65;7.22;;;;;;;;;;5065104;28;20028;-74
2023/05/24 01:13:51;;;;;;;12.70;7.32;;;;;;;;;;5058996;28;20108;-74
2023/05/24 01:16:22;;;;;;;11.43;7.10;;;;;;;;;;5064997;28;20071;-73
2023/05/24 01:18:51;;;;;;;27.25;9.30;;;;;;;;;;5060740;28;20100;-73
2023/05/24 01:21:37;;;;;;;18.30;8.32;;;;;;;;;;5066245;28;20029;-74
2023/05/24 01:24:06;;;;;;;13.98;8.40;;;;;;;;;;5064115;28;20032;-79
2023/05/24 01:26:35;;;;;;;16.88;9.32;;;;;;;;;;5063618;28;20028;-74
2023/05/24 01:29:02;;;;;;;17.30;8.88;;;;;;;;;;5064905;28;20111;-74
2023/05/24 01:31:28;;;;;;;20.25;9.68;;;;;;;;;;5065629;28;20044;-75
2023/05/24 01:33:54;;;;;;;12.20;8.80;;;;;;;;;;5061905;28;20020;-74
2023/05/24 01:36:20;;;;;;;16.15;9.43;;;;;;;;;;5061134;28;20024;-73
2023/05/24 01:38:48;;;;;;;16.30;8.70;;;;;;;;;;5066159;28;20031;-74
2023/05/24 01:41:14;;;;;;;16.55;9.35;;;;;;;;;;5065746;28;20047;-74
2023/05/24 01:43:43;;;;;;;15.18;10.00;;;;;;;;;;5060691;28;20032;-74
2023/05/24 01:46:29;;;;;;;13.07;9.63;;;;;;;;;;5063931;28;20020;-75
2023/05/24 01:49:13;;;;;;;13.95;9.68;;;;;;;;;;5061764;28;20514;-74
2023/05/24 01:51:54;;;;;;;12.23;9.00;;;;;;;;;;5063886;28;20427;-74
2023/05/24 01:54:23;;;;;;;14.57;9.45;;;;;;;;;;5062719;28;20825;-74
2023/05/24 01:56:51;;;;;;;13.27;9.93;;;;;;;;;;5063958;28;20078;-73
2023/05/24 01:59:17;;;;;;;14.32;9.75;;;;;;;;;;5060730;28;20126;-77
2023/05/24 02:01:44;;;;;;;13.35;9.90;;;;;;;;;;5064616;28;20115;-73
2023/05/24 02:04:10;;;;;;;15.75;10.32;;;;;;;;;;5062378;28;20875;-74
2023/05/24 02:06:37;;;;;;;13.18;9.10;;;;;;;;;;5067560;28;20031;-74
2023/05/24 02:09:03;;;;;;;12.75;8.95;;;;;;;;;;5059318;28;20046;-74
2023/05/24 02:11:29;;;;;;;12.15;8.82;;;;;;;;;;5062209;28;20028;-74
2023/05/24 02:13:55;;;;;;;12.65;8.75;;;;;;;;;;5064482;28;20056;-74
2023/05/24 02:16:23;;;;;;;14.30;9.30;;;;;;;;;;5062881;28;20428;-74
2023/05/24 02:18:49;;;;;;;17.85;11.70;;;;;;;;;;5068310;28;20499;-74
2023/05/24 02:21:15;;;;;;;15.95;10.20;;;;;;;;;;5061416;28;20111;-74
2023/05/24 02:23:42;;;;;;;16.98;11.15;;;;;;;;;;5062834;28;20144;-74
2023/05/24 02:26:10;;;;;;;17.42;10.05;;;;;;;;;;5062347;28;20562;-74
2023/05/24 02:28:36;;;;;;;18.67;10.00;;;;;;;;;;5058100;28;20043;-74
2023/05/24 02:31:03;;;;;;;13.30;9.00;;;;;;;;;;5065406;28;20115;-73
2023/05/24 02:33:29;;;;;;;15.02;8.98;;;;;;;;;;5063631;28;20023;-74
2023/05/24 02:35:56;;;;;;;16.20;8.85;;;;;;;;;;5071248;28;20037;-74
2023/05/24 02:38:22;;;;;;;11.52;8.18;;;;;;;;;;5065672;28;20106;-74
2023/05/24 02:40:48;;;;;;;12.77;8.88;;;;;;;;;;5065247;28;20480;-73
2023/05/24 02:43:15;;;;;;;15.63;8.88;;;;;;;;;;5065800;28;20035;-73
2023/05/24 02:45:41;;;;;;;15.63;10.63;;;;;;;;;;5063898;28;20507;-76
2023/05/24 02:48:07;;;;;;;15.18;9.13;;;;;;;;;;5066169;28;20036;-74
2023/05/24 02:50:33;;;;;;;14.05;8.57;;;;;;;;;;5067792;28;20681;-74
2023/05/24 02:53:00;;;;;;;12.18;8.73;;;;;;;;;;5068589;28;20017;-74
2023/05/24 02:55:27;;;;;;;13.18;8.75;;;;;;;;;;5068372;28;20070;-73
2023/05/24 02:57:54;;;;;;;11.23;8.35;;;;;;;;;;5067114;28;20469;-74
2023/05/24 03:00:20;;;;;;;12.85;8.40;;;;;;;;;;5068460;28;20052;-74
2023/05/24 03:02:46;;;;;;;12.13;8.50;;;;;;;;;;5068109;28;20656;-78
2023/05/24 03:05:12;;;;;;;15.43;9.15;;;;;;;;;;5065232;28;20040;-74
2023/05/24 03:07:39;;;;;;;14.32;8.93;;;;;;;;;;5063904;28;20021;-74
2023/05/24 03:10:06;;;;;;;12.25;8.75;;;;;;;;;;5068079;28;20036;-73
2023/05/24 03:12:32;;;;;;;16.08;8.85;;;;;;;;;;5064976;28;20055;-74
2023/05/24 03:14:58;;;;;;;11.82;8.32;;;;;;;;;;5063291;28;20087;-76
2023/05/24 03:17:25;;;;;;;14.32;8.35;;;;;;;;;;5065232;28;20048;-74
2023/05/24 03:19:51;;;;;;;16.35;8.45;;;;;;;;;;5065176;28;20021;-73
2023/05/24 03:22:18;;;;;;;13.77;8.60;;;;;;;;;;5066333;28;20075;-74
2023/05/24 03:24:47;;;;;;;14.05;7.95;;;;;;;;;;5068068;28;20025;-73
2023/05/24 03:27:13;;;;;;;10.75;7.68;;;;;;;;;;5066990;28;20052;-74
2023/05/24 03:29:40;;;;;;;10.30;8.35;;;;;;;;;;5068326;28;20017;-74
2023/05/24 03:32:06;;;;;;;9.15;7.70;;;;;;;;;;5063613;28;20609;-74
2023/05/24 03:34:32;;;;;;;17.85;9.15;;;;;;;;;;5064783;28;20023;-74
2023/05/24 03:36:58;;;;;;;11.88;8.32;;;;;;;;;;5063324;28;20197;-74
2023/05/24 03:39:24;;;;;;;14.18;8.52;;;;;;;;;;5064106;28;20020;-74
2023/05/24 03:41:50;;;;;;;12.88;8.70;;;;;;;;;;5064469;28;20017;-74
2023/05/24 03:44:17;;;;;;;14.25;9.20;;;;;;;;;;5064585;28;20029;-74
2023/05/24 03:46:43;;;;;;;17.63;9.38;;;;;;;;;;5064151;28;20107;-74
2023/05/24 03:49:09;;;;;;;14.23;9.48;;;;;;;;;;5067646;28;20088;-75
2023/05/24 03:51:35;;;;;;;16.40;9.20;;;;;;;;;;5065993;28;20028;-74
2023/05/24 03:54:02;;;;;;;15.27;9.48;;;;;;;;;;5067707;28;20024;-74
2023/05/24 03:56:28;;;;;;;13.65;9.60;;;;;;;;;;5067672;28;20024;-74
2023/05/24 03:58:59;;;;;;;14.50;8.50;;;;;;;;;;5065010;28;20467;-75
2023/05/24 04:01:25;;;;;;;11.82;8.95;;;;;;;;;;5065679;28;20736;-80
2023/05/24 04:03:55;;;;;;;11.48;8.05;;;;;;;;;;5067133;28;20500;-74
2023/05/24 04:06:27;;;;;;;12.50;8.52;;;;;;;;;;5068140;28;20033;-74
2023/05/24 04:08:53;;;;;;;11.68;7.97;;;;;;;;;;5068588;28;20027;-75
2023/05/24 04:11:21;;;;;;;13.70;8.60;;;;;;;;;;5067564;28;20389;-74
2023/05/24 04:13:47;;;;;;;13.45;8.35;;;;;;;;;;5066857;28;20017;-76
2023/05/24 04:16:13;;;;;;;16.15;8.85;;;;;;;;;;5068442;28;20078;-74
2023/05/24 04:18:39;;;;;;;16.30;8.70;;;;;;;;;;5066977;28;20591;-75
2023/05/24 04:21:06;;;;;;;21.20;9.73;;;;;;;;;;5065479;28;20115;-75
2023/05/24 04:23:32;;;;;;;17.38;9.38;;;;;;;;;;5068316;28;20050;-74
2023/05/24 04:25:58;;;;;;;23.27;8.85;;;;;;;;;;5067992;28;20032;-74
2023/05/24 04:28:25;;;;;;;12.15;8.68;;;;;;;;;;5068429;28;20039;-73
2023/05/24 04:30:52;;;;;;;20.23;9.75;;;;;;;;;;5075119;28;20567;-74
2023/05/24 04:33:18;;;;;;;15.48;9.10;;;;;;;;;;5066810;28;20052;-74
2023/05/24 04:35:46;;;;;;;12.57;8.88;;;;;;;;;;5067523;28;20388;-77
2023/05/24 04:38:13;;;;;;;45.22;11.32;;;;;;;;;;5066425;28;20456;-74
2023/05/24 04:40:39;;;;;;;14.68;9.07;;;;;;;;;;5059971;28;20012;-73
2023/05/24 04:43:06;;;;;;;15.00;9.48;;;;;;;;;;5067243;28;20442;-73
2023/05/24 04:45:33;;;;;;;17.13;9.98;;;;;;;;;;5068294;28;20499;-73
2023/05/24 04:47:59;;;;;;;13.50;9.60;;;;;;;;;;5066177;28;20024;-73
2023/05/24 04:50:25;;;;;;;29.23;10.65;;;;;;;;;;5067976;28;20112;-72
2023/05/24 04:52:51;;;;;;;20.35;11.88;;;;;;;;;;5067818;28;20425;-73
2023/05/24 04:55:17;;;;;;;17.45;10.32;;;;;;;;;;5067567;28;20112;-73
2023/05/24 04:57:43;;;;;;;14.38;9.65;;;;;;;;;;5067632;28;20103;-73
2023/05/24 05:00:10;;;;;;;22.08;10.88;;;;;;;;;;5066005;28;20115;-76
2023/05/24 05:02:37;;;;;;;18.13;11.27;;;;;;;;;;5068100;28;20040;-73
2023/05/24 05:05:03;;;;;;;14.70;10.32;;;;;;;;;;5067149;28;20108;-73
2023/05/24 05:07:29;;;;;;;14.55;9.95;;;;;;;;;;5067323;28;20025;-73
2023/05/24 05:09:55;;;;;;;14.18;9.10;;;;;;;;;;5065901;28;20226;-73
2023/05/24 05:12:22;;;;;;;16.60;8.90;;;;;;;;;;5066862;28;20056;-74
2023/05/24 05:14:49;;;;;;;15.40;9.80;;;;;;;;;;5065692;28;20031;-73
2023/05/24 05:17:15;;;;;;;17.98;9.13;;;;;;;;;;5067559;28;20389;-74
2023/05/24 05:19:41;;;;;;;15.95;9.93;;;;;;;;;;5067207;28;20077;-73
2023/05/24 05:22:07;;;;;;;20.38;11.82;;;;;;;;;;5070398;28;20464;-74
2023/05/24 05:24:34;;;;;;;18.38;11.13;;;;;;;;;;5067303;28;20108;-73
2023/05/24 05:27:00;;;;;;;18.10;9.50;;;;;;;;;;5065673;28;20017;-73
2023/05/24 05:29:26;;;;;;;18.73;9.70;;;;;;;;;;5067178;28;20036;-73
2023/05/24 05:31:52;;;;;;;17.38;9.65;;;;;;;;;;5067080;28;20385;-79
2023/05/24 05:34:20;;;;;;;17.73;9.77;;;;;;;;;;5064216;28;20033;-74
2023/05/24 05:36:46;;;;;;;12.98;9.20;;;;;;;;;;5074626;28;20021;-73
2023/05/24 05:39:12;;;;;;;19.00;9.93;;;;;;;;;;5066981;28;20078;-73
2023/05/24 05:41:41;;;;;;;16.23;9.48;;;;;;;;;;5066968;28;20024;-73
2023/05/24 05:44:07;;;;;;;121.43;19.00;;;;;;;;;;5066135;28;20037;-74
2023/05/24 05:46:33;;;;;;;21.83;10.10;;;;;;;;;;5066346;28;20079;-73
2023/05/24 05:48:59;;;;;;;30.55;10.48;;;;;;;;;;5065130;28;20052;-74
2023/05/24 05:51:25;;;;;;;102.93;17.00;;;;;;;;;;5066564;28;20104;-73
2023/05/24 05:53:52;;;;;;;1386.32;178.73;;;;;;;;;;5066467;28;20130;-74
2023/05/24 05:56:18;;;;;;;556.17;59.40;;;;;;;;;;5064674;28;20099;-74
2023/05/24 05:58:44;;;;;;;187.68;28.92;;;;;;;;;;5066798;28;20020;-74
2023/05/24 06:01:10;;;;;;;47.22;12.75;;;;;;;;;;5065858;28;20051;-73
2023/05/24 06:03:36;;;;;;;44.28;12.07;;;;;;;;;;5066280;28;20032;-73
2023/05/24 06:06:03;;;;;;;72.80;13.13;;;;;;;;;;5065902;28;20040;-76
2023/05/24 06:08:33;;;;;;;45.15;13.15;;;;;;;;;;5064982;28;20459;-73
2023/05/24 06:11:00;;;;;;;48.45;14.13;;;;;;;;;;5068944;28;20464;-73
2023/05/24 06:13:27;;;;;;;50.40;15.23;;;;;;;;;;5069334;28;20076;-74
2023/05/24 06:15:57;;;;;;;66.20;14.60;;;;;;;;;;5065879;28;20016;-74
2023/05/24 06:18:25;;;;;;;206.95;24.80;;;;;;;;;;5066688;28;20037;-75
2023/05/24 06:20:51;;;;;;;357.98;38.22;;;;;;;;;;5074024;28;20020;-73
2023/05/24 06:23:17;;;;;;;142.23;23.23;;;;;;;;;;5064110;28;20536;-73
2023/05/24 06:25:43;;;;;;;33.92;11.25;;;;;;;;;;5065189;28;20124;-73
2023/05/24 06:28:10;;;;;;;17.00;9.18;;;;;;;;;;5065993;28;20044;-75
2023/05/24 06:30:36;;;;;;;51.60;12.43;;;;;;;;;;5066092;28;20030;-73
2023/05/24 06:33:02;;;;;;;70.57;14.65;;;;;;;;;;5065910;28;20040;-75
2023/05/24 06:35:29;;;;;;;104.10;19.23;;;;;;;;;;5063225;28;20020;-76
2023/05/24 06:37:56;;;;;;;45.17;11.70;;;;;;;;;;5066017;28;20564;-78
2023/05/24 06:40:23;;;;;;;16.30;8.90;;;;;;;;;;5065284;28;20027;-77
2023/05/24 06:42:49;;;;;;;12.27;8.55;;;;;;;;;;5065173;28;20085;-75
2023/05/24 06:45:15;;;;;;;25.48;10.18;;;;;;;;;;5063223;28;20487;-77
2023/05/24 06:47:41;;;;;;;15.98;8.73;;;;;;;;;;5070197;28;20426;-75
2023/05/24 06:50:08;;;;;;;17.90;10.13;;;;;;;;;;5062667;28;20495;-76
2023/05/24 06:52:34;;;;;;;14.00;8.65;;;;;;;;;;5063403;28;20036;-75
2023/05/24 06:55:00;;;;;;;16.90;9.65;;;;;;;;;;5064772;28;20025;-76
2023/05/24 06:57:27;;;;;;;18.25;8.95;;;;;;;;;;5064870;28;20188;-76
2023/05/24 06:59:53;;;;;;;11.20;8.00;;;;;;;;;;5063747;28;20044;-77
2023/05/24 07:02:25;;;;;;;12.60;7.75;;;;;;;;;;5064484;28;20520;-76
2023/05/24 07:04:51;;;;;;;11.77;7.78;;;;;;;;;;5062798;28;20032;-75
2023/05/24 07:07:17;;;;;;;14.13;7.40;;;;;;;;;;5064317;28;20021;-75
2023/05/24 07:09:44;;;;;;;9.95;7.10;;;;;;;;;;5065734;28;20107;-76
2023/05/24 07:12:11;;;;;;;13.82;7.38;;;;;;;;;;5070305;28;20027;-76
2023/05/24 07:14:37;;;;;;;16.55;7.65;;;;;;;;;;5063154;28;20478;-76
2023/05/24 07:17:03;;;;;;;11.45;6.90;;;;;;;;;;5064531;28;20090;-76
2023/05/24 07:19:29;;;;;;;10.35;7.50;;;;;;;;;;5067370;28;20051;-76
2023/05/24 07:21:56;;;;;;;12.45;7.22;;;;;;;;;;5064550;28;20025;-76
2023/05/24 07:24:22;;;;;;;13.20;7.13;;;;;;;;;;5062963;28;20028;-76
2023/05/24 07:26:49;;;;;;;15.30;7.70;;;;;;;;;;5064133;28;20548;-75
2023/05/24 07:29:15;;;;;;;13.27;7.20;;;;;;;;;;5064936;28;20469;-75
2023/05/24 07:31:42;;;;;;;10.98;7.30;;;;;;;;;;5067686;28;20055;-77
2023/05/24 07:34:08;;;;;;;12.65;7.00;;;;;;;;;;5066126;28;20099;-77
2023/05/24 07:36:34;;;;;;;14.07;7.05;;;;;;;;;;5065652;28;20112;-77
2023/05/24 07:39:01;;;;;;;11.23;6.78;;;;;;;;;;5073914;28;20055;-76
2023/05/24 07:41:28;;;;;;;11.45;7.20;;;;;;;;;;5066922;28;20036;-75
2023/05/24 07:43:55;;;;;;;14.55;7.70;;;;;;;;;;5067410;28;20025;-73
2023/05/24 07:46:21;;;;;;;13.63;7.90;;;;;;;;;;5074566;28;20120;-74
2023/05/24 07:48:48;;;;;;;11.80;8.38;;;;;;;;;;5067110;28;20028;-74
2023/05/24 07:51:14;;;;;;;15.70;8.18;;;;;;;;;;5067019;28;20716;-76
2023/05/24 07:53:40;;;;;;;13.07;7.57;;;;;;;;;;5067427;28;20025;-76
2023/05/24 07:56:06;;;;;;;11.57;7.78;;;;;;;;;;5058412;28;20062;-76
2023/05/24 07:58:33;;;;;;;17.52;8.75;;;;;;;;;;5067017;28;20021;-77
2023/05/24 08:00:59;;;;;;;11.75;7.40;;;;;;;;;;5066949;28;20044;-76
2023/05/24 08:03:26;;;;;;;12.30;7.68;;;;;;;;;;5067202;28;20021;-74
2023/05/24 08:05:52;;;;;;;11.43;8.35;;;;;;;;;;5064862;28;20025;-75
2023/05/24 08:08:19;;;;;;;19.23;10.30;;;;;;;;;;5067329;28;20108;-74
2023/05/24 08:10:45;;;;;;;11.52;8.07;;;;;;;;;;5066559;28;20017;-74
2023/05/24 08:13:12;;;;;;;14.65;8.70;;;;;;;;;;5066257;28;20025;-75
2023/05/24 08:15:38;;;;;;;14.65;8.57;;;;;;;;;;5065833;28;20113;-75
2023/05/24 08:18:05;;;;;;;11.23;7.70;;;;;;;;;;5068216;28;20029;-75
2023/05/24 08:20:34;;;;;;;14.57;7.78;;;;;;;;;;5066351;28;20409;-75
2023/05/24 08:23:01;;;;;;;13.00;7.90;;;;;;;;;;5067374;28;20029;-74
2023/05/24 08:25:27;;;;;;;13.32;8.00;;;;;;;;;;5066660;28;20532;-75
2023/05/24 08:27:56;;;;;;;10.40;7.93;;;;;;;;;;5067181;28;20052;-75
2023/05/24 08:30:23;;;;;;;12.32;8.13;;;;;;;;;;5067137;28;20032;-74
2023/05/24 08:32:51;;;;;;;12.27;7.60;;;;;;;;;;5065899;28;20032;-74
2023/05/24 08:35:17;;;;;;;14.18;9.07;;;;;;;;;;5066889;28;20118;-74
2023/05/24 08:37:43;;;;;;;9.55;7.53;;;;;;;;;;5066799;28;20025;-74
2023/05/24 08:40:09;;;;;;;13.85;8.10;;;;;;;;;;5067295;28;20013;-73
2023/05/24 08:42:38;;;;;;;15.13;8.77;;;;;;;;;;5065176;28;20404;-75
2023/05/24 08:45:08;;;;;;;23.40;8.85;;;;;;;;;;5066494;28;20028;-74
2023/05/24 08:47:36;;;;;;;10.02;7.90;;;;;;;;;;5066195;28;20020;-73
2023/05/24 08:50:02;;;;;;;13.55;8.38;;;;;;;;;;5069017;28;20101;-74
2023/05/24 08:52:29;;;;;;;12.35;7.72;;;;;;;;;;5069963;28;20056;-74
2023/05/24 08:54:55;;;;;;;10.77;7.07;;;;;;;;;;5070293;28;20025;-74
2023/05/24 08:57:22;;;;;;;11.10;7.43;;;;;;;;;;5069732;28;20028;-76
2023/05/24 08:59:49;;;;;;;9.48;6.45;;;;;;;;;;5068837;28;20044;-76
2023/05/24 09:02:16;;;;;;;9.95;7.30;;;;;;;;;;5070144;28;20103;-77
2023/05/24 09:04:43;;;;;;;11.13;6.93;;;;;;;;;;5070406;28;20132;-78
2023/05/24 09:07:09;;;;;;;12.50;7.18;;;;;;;;;;5070061;28;20040;-77
2023/05/24 09:09:36;;;;;;;11.02;6.63;;;;;;;;;;5068763;28;20506;-76
2023/05/24 09:12:04;;;;;;;8.15;6.90;;;;;;;;;;5069861;28;20111;-75
2023/05/24 09:14:31;;;;;;;10.48;7.45;;;;;;;;;;5069805;28;20013;-76
2023/05/24 09:16:57;;;;;;;11.45;6.88;;;;;;;;;;5068237;28;20181;-77
2023/05/24 09:19:26;;;;;;;12.63;7.97;;;;;;;;;;5070151;28;20016;-76
2023/05/24 09:21:53;;;;;;;9.23;6.93;;;;;;;;;;5070065;28;20020;-78
2023/05/24 09:24:19;;;;;;;11.23;7.13;;;;;;;;;;5070000;28;20106;-75
2023/05/24 09:26:49;;;;;;;13.30;8.40;;;;;;;;;;5069701;28;20063;-76
2023/05/24 09:29:15;;;;;;;14.73;8.82;;;;;;;;;;5074343;28;20021;-76
2023/05/24 09:31:42;;;;;;;10.95;8.20;;;;;;;;;;5069660;28;20418;-74
2023/05/24 09:34:15;;;;;;;12.00;8.32;;;;;;;;;;5069358;28;20013;-78
2023/05/24 09:36:44;;;;;;;11.50;8.60;;;;;;;;;;5067562;28;20035;-77
2023/05/24 09:39:10;;;;;;;10.57;7.82;;;;;;;;;;5069581;28;20086;-78
2023/05/24 09:41:36;;;;;;;13.98;9.00;;;;;;;;;;5069119;28;20028;-79
2023/05/24 09:44:03;;;;;;;11.45;7.50;;;;;;;;;;5071224;28;20044;-80
2023/05/24 09:46:34;;;;;;;9.77;7.63;;;;;;;;;;5067490;28;20028;-79
2023/05/24 09:49:06;;;;;;;11.45;8.20;;;;;;;;;;5069508;28;20012;-79
2023/05/24 09:51:36;;;;;;;10.02;7.60;;;;;;;;;;5069025;28;20120;-79
2023/05/24 09:54:03;;;;;;;9.30;7.53;;;;;;;;;;5075908;28;20009;-80
2023/05/24 09:56:30;;;;;;;12.13;7.43;;;;;;;;;;5068204;28;20043;-80
2023/05/24 09:58:56;;;;;;;10.10;7.85;;;;;;;;;;5069287;28;20028;-79
2023/05/24 10:01:24;;;;;;;12.38;8.05;;;;;;;;;;5061112;28;20101;-80
2023/05/24 10:03:59;;;;;;;11.85;7.20;;;;;;;;;;5067903;28;20377;-81
2023/05/24 10:06:25;;;;;;;9.88;7.07;;;;;;;;;;5061402;28;20058;-79
2023/05/24 10:08:53;;;;;;;11.15;7.95;;;;;;;;;;5068558;28;20023;-79
2023/05/24 10:11:20;;;;;;;11.85;7.82;;;;;;;;;;5069074;28;20036;-77
2023/05/24 10:13:47;;;;;;;15.43;7.25;;;;;;;;;;5067082;28;20381;-78
2023/05/24 10:16:13;;;;;;;10.98;7.38;;;;;;;;;;5068887;28;20649;-79
2023/05/24 10:18:40;;;;;;;9.63;7.60;;;;;;;;;;5068738;28;20564;-79
2023/05/24 10:21:09;;;;;;;11.93;7.78;;;;;;;;;;5075490;28;20020;-79
2023/05/24 10:23:39;;;;;;;11.43;8.55;;;;;;;;;;5068925;28;20594;-79
2023/05/24 10:26:06;;;;;;;9.10;7.32;;;;;;;;;;5068389;28;20025;-80
2023/05/24 10:31:38;;;;;;;9.77;8.18;;;;;;;;;;5062231;28;20031;-79
2023/05/24 10:34:05;;;;;;;12.13;7.95;;;;;;;;;;5068540;28;20051;-79
2023/05/24 10:36:32;;;;;;;12.48;7.53;;;;;;;;;;5068099;28;20453;-78
2023/05/24 10:38:59;;;;;;;10.30;7.80;;;;;;;;;;5068468;28;20090;-77
2023/05/24 10:41:26;;;;;;;11.10;7.43;;;;;;;;;;5066976;28;20025;-78
2023/05/24 10:43:53;;;;;;;11.23;8.25;;;;;;;;;;5068262;28;20016;-78
2023/05/24 10:46:21;;;;;;;11.38;8.52;;;;;;;;;;5066782;28;20128;-77
2023/05/24 10:49:00;;;;;;;12.68;8.52;;;;;;;;;;5068457;28;20040;-78
2023/05/24 10:51:35;;;;;;;9.73;7.78;;;;;;;;;;5066575;28;20021;-79
2023/05/24 10:54:30;;;;;;;14.88;9.35;;;;;;;;;;5067636;28;20020;-81
2023/05/24 10:57:02;;;;;;;13.70;9.05;;;;;;;;;;5054172;28;20066;-75
2023/05/24 10:59:28;;;;;;;10.90;8.43;;;;;;;;;;5066734;28;20602;-78
2023/05/24 11:01:56;;;;;;;10.35;7.70;;;;;;;;;;5068243;28;20067;-77
2023/05/24 11:04:22;;;;;;;12.02;8.07;;;;;;;;;;5067781;28;20048;-79
2023/05/24 11:06:54;;;;;;;11.82;8.18;;;;;;;;;;5065719;28;20079;-78
2023/05/24 11:09:21;;;;;;;12.35;8.80;;;;;;;;;;5067906;28;20032;-78
2023/05/24 11:11:48;;;;;;;15.15;8.10;;;;;;;;;;5067482;28;20143;-79
2023/05/24 11:14:21;;;;;;;9.93;7.60;;;;;;;;;;5066224;28;20454;-78
2023/05/24 11:16:49;;;;;;;10.20;8.77;;;;;;;;;;5066194;28;20426;-77
2023/05/24 11:19:17;;;;;;;9.45;8.00;;;;;;;;;;5067521;28;20031;-79
2023/05/24 11:21:46;;;;;;;10.27;7.95;;;;;;;;;;5067002;28;20028;-79
2023/05/24 11:24:13;;;;;;;11.98;7.88;;;;;;;;;;5067855;28;20509;-78
2023/05/24 11:26:40;;;;;;;10.90;8.18;;;;;;;;;;5066022;28;20086;-79
2023/05/24 11:29:07;;;;;;;10.95;8.00;;;;;;;;;;5073710;28;20499;-78
2023/05/24 11:31:33;;;;;;;10.75;8.93;;;;;;;;;;5075361;28;20024;-78
2023/05/24 11:34:00;;;;;;;14.80;8.50;;;;;;;;;;5067808;28;20512;-76
2023/05/24 11:36:26;;;;;;;11.43;7.90;;;;;;;;;;5067853;28;20029;-78
2023/05/24 11:38:53;;;;;;;10.32;7.93;;;;;;;;;;5067814;28;20669;-78
2023/05/24 11:41:19;;;;;;;11.43;7.93;;;;;;;;;;5066445;28;20099;-78
2023/05/24 11:43:46;;;;;;;8.38;7.47;;;;;;;;;;5067340;28;20504;-78
2023/05/24 11:46:13;;;;;;;12.20;7.72;;;;;;;;;;5067423;28;20610;-79
2023/05/24 11:48:39;;;;;;;9.80;7.97;;;;;;;;;;5066119;28;20024;-75
2023/05/24 11:51:05;;;;;;;11.55;8.02;;;;;;;;;;5066640;28;20028;-79
2023/05/24 11:53:31;;;;;;;9.93;7.78;;;;;;;;;;5067369;28;20149;-79
2023/05/24 11:55:57;;;;;;;9.40;7.68;;;;;;;;;;5067062;28;20028;-77
2023/05/24 11:58:36;;;;;;;11.43;8.15;;;;;;;;;;5067286;28;20388;-77
2023/05/24 12:01:02;;;;;;;10.57;7.97;;;;;;;;;;5067703;28;20044;-79
2023/05/24 12:03:29;;;;;;;10.90;7.95;;;;;;;;;;5065512;28;20032;-75
2023/05/24 12:05:56;;;;;;;9.57;7.43;;;;;;;;;;5066649;28;20652;-77
2023/05/24 12:08:23;;;;;;;14.27;7.80;;;;;;;;;;5068046;28;20056;-78
2023/05/24 12:10:50;;;;;;;11.57;7.70;;;;;;;;;;5066962;28;20119;-78
2023/05/24 12:13:23;;;;;;;11.73;7.40;;;;;;;;;;5066784;28;20485;-81
2023/05/24 12:15:51;;;;;;;9.15;7.47;;;;;;;;;;5066734;28;20388;-77
2023/05/24 12:18:18;;;;;;;11.68;7.85;;;;;;;;;;5065747;28;20369;-76
2023/05/24 12:20:45;;;;;;;9.05;8.07;;;;;;;;;;5067157;28;20019;-78
2023/05/24 12:23:12;;;;;;;13.45;7.72;;;;;;;;;;5069062;28;20128;-79
2023/05/24 12:25:38;;;;;;;11.32;9.00;;;;;;;;;;5070950;28;20079;-75
2023/05/24 12:28:04;;;;;;;10.82;8.32;;;;;;;;;;5070705;28;20362;-78
2023/05/24 12:30:30;;;;;;;9.18;7.55;;;;;;;;;;5069535;28;20121;-78
2023/05/24 12:32:57;;;;;;;15.07;8.68;;;;;;;;;;5070844;28;20028;-79
2023/05/24 12:35:23;;;;;;;10.90;8.27;;;;;;;;;;5070363;28;20125;-79
2023/05/24 12:37:50;;;;;;;13.77;8.45;;;;;;;;;;5070224;28;20473;-77
2023/05/24 12:40:20;;;;;;;10.50;8.18;;;;;;;;;;5070538;28;20059;-76
2023/05/24 12:42:59;;;;;;;14.32;9.25;;;;;;;;;;5061605;28;20020;-80
2023/05/24 12:45:26;;;;;;;12.18;9.38;;;;;;;;;;5069968;28;20040;-79
2023/05/24 12:47:53;;;;;;;11.75;8.52;;;;;;;;;;5069176;28;20024;-80
2023/05/24 12:50:20;;;;;;;11.88;8.80;;;;;;;;;;5068829;28;20051;-78
2023/05/24 12:52:47;;;;;;;12.13;9.32;;;;;;;;;;5070268;28;20025;-80
2023/05/24 12:55:16;;;;;;;11.32;8.50;;;;;;;;;;5070465;28;20546;-77
2023/05/24 12:57:43;;;;;;;11.73;8.30;;;;;;;;;;5069240;28;20824;-77
2023/05/24 13:00:10;;;;;;;11.93;8.45;;;;;;;;;;5073700;28;20135;-80
2023/05/24 13:02:38;;;;;;;13.93;9.15;;;;;;;;;;5070243;28;20032;-80
2023/05/24 13:05:04;;;;;;;14.20;9.35;;;;;;;;;;5070179;28;20026;-78
2023/05/24 13:07:30;;;;;;;14.15;9.68;;;;;;;;;;5069779;28;20031;-79
2023/05/24 13:09:58;;;;;;;11.30;8.90;;;;;;;;;;5068687;28;20556;-78
2023/05/24 13:12:26;;;;;;;11.35;8.40;;;;;;;;;;5074148;28;20085;-78
2023/05/24 13:14:52;;;;;;;11.25;10.00;;;;;;;;;;5069884;28;20104;-76
2023/05/24 13:17:19;;;;;;;11.60;8.70;;;;;;;;;;5069638;28;20070;-78
2023/05/24 13:19:46;;;;;;;10.90;9.02;;;;;;;;;;5069979;28;20151;-77
2023/05/24 13:22:12;;;;;;;10.32;8.10;;;;;;;;;;5069692;28;20025;-77
2023/05/24 13:24:38;;;;;;;12.18;8.25;;;;;;;;;;5068215;28;20085;-78
2023/05/24 13:27:05;;;;;;;10.27;8.38;;;;;;;;;;5068131;28;20432;-79
2023/05/24 13:29:31;;;;;;;12.20;8.60;;;;;;;;;;5069694;28;20021;-77
2023/05/24 13:31:57;;;;;;;12.02;8.75;;;;;;;;;;5069637;28;20027;-77
2023/05/24 13:34:24;;;;;;;11.60;7.68;;;;;;;;;;5069011;28;20081;-77
2023/05/24 13:36:51;;;;;;;9.82;7.32;;;;;;;;;;5078533;28;20036;-75
2023/05/24 13:39:18;;;;;;;13.75;7.72;;;;;;;;;;5069062;28;20047;-76
2023/05/24 13:41:44;;;;;;;9.93;7.47;;;;;;;;;;5069533;28;20039;-78
2023/05/24 13:44:11;;;;;;;9.88;7.57;;;;;;;;;;5069413;28;20478;-77
2023/05/24 13:46:38;;;;;;;12.85;7.45;;;;;;;;;;5068057;28;20078;-77
2023/05/24 13:49:04;;;;;;;12.88;8.05;;;;;;;;;;5069233;28;20091;-77
2023/05/24 13:51:30;;;;;;;10.75;7.55;;;;;;;;;;5068760;28;20078;-77
2023/05/24 13:53:56;;;;;;;11.43;7.32;;;;;;;;;;5067921;28;20556;-76
2023/05/24 13:56:23;;;;;;;11.48;7.53;;;;;;;;;;5069233;28;20025;-77
2023/05/24 13:58:50;;;;;;;10.38;6.88;;;;;;;;;;5069243;28;20565;-78
2023/05/24 14:01:17;;;;;;;9.10;7.32;;;;;;;;;;5068957;28;20044;-77
2023/05/24 14:03:43;;;;;;;10.43;7.72;;;;;;;;;;5067624;28;20162;-75
2023/05/24 14:06:09;;;;;;;8.25;7.00;;;;;;;;;;5068627;28;20029;-78
2023/05/24 14:08:36;;;;;;;10.98;7.38;;;;;;;;;;5068552;28;20024;-73
2023/05/24 14:11:02;;;;;;;10.60;7.38;;;;;;;;;;5068195;28;20020;-75
2023/05/24 14:13:28;;;;;;;10.43;7.15;;;;;;;;;;5068517;28;20388;-76
2023/05/24 14:15:54;;;;;;;11.23;7.28;;;;;;;;;;5068812;28;20017;-73
2023/05/24 14:18:20;;;;;;;12.82;7.57;;;;;;;;;;5065555;28;20408;-74
2023/05/24 14:20:47;;;;;;;11.40;7.05;;;;;;;;;;5062436;28;20020;-73
2023/05/24 14:23:13;;;;;;;9.60;6.78;;;;;;;;;;5069220;28;20453;-76
2023/05/24 14:25:40;;;;;;;10.27;7.65;;;;;;;;;;5068574;28;20610;-77
2023/05/24 14:28:10;;;;;;;9.43;7.10;;;;;;;;;;5068262;28;20093;-77
2023/05/24 14:30:36;;;;;;;9.82;7.53;;;;;;;;;;5068629;28;20104;-76
2023/05/24 14:33:05;;;;;;;10.23;7.32;;;;;;;;;;5066982;28;20066;-76